createdAt,value
2022-12-15T00:02:15.591Z,7.27
2022-12-15T00:05:00.796Z,7.36
2022-12-15T00:07:45.964Z,7.45
2022-12-15T00:10:31.212Z,7.49
2022-12-15T00:13:16.370Z,7.53
2022-12-15T00:16:01.092Z,7.57
2022-12-15T00:18:46.284Z,7.51
2022-12-15T00:21:31.430Z,7.57
2022-12-15T00:24:16.195Z,7.57
2022-12-15T00:27:00.943Z,7.64
2022-12-15T00:29:46.355Z,7.66
2022-12-15T00:32:31.565Z,7.61
2022-12-15T00:35:16.405Z,7.65
2022-12-15T00:38:01.691Z,7.67
2022-12-15T00:40:28.226Z,7.72
2022-12-15T00:42:54.726Z,7.73
2022-12-15T00:45:21.433Z,7.70
2022-12-15T00:47:47.958Z,7.71
2022-12-15T00:50:33.229Z,7.72
2022-12-15T00:53:18.021Z,7.76
2022-12-15T00:56:02.686Z,7.82
2022-12-15T00:58:47.772Z,7.87
2022-12-15T01:01:32.751Z,7.87
2022-12-15T01:04:17.861Z,7.83
2022-12-15T01:07:02.994Z,7.84
2022-12-15T01:09:47.973Z,7.88
2022-12-15T01:12:33.396Z,7.94
2022-12-15T01:15:18.189Z,7.91
2022-12-15T01:18:03.092Z,7.94
2022-12-15T01:20:34.614Z,7.89
2022-12-15T01:23:01.266Z,7.86
2022-12-15T01:25:28.052Z,7.83
2022-12-15T01:27:54.974Z,7.86
2022-12-15T01:30:26.160Z,7.90
2022-12-15T01:32:53.514Z,7.95
2022-12-15T01:35:20.020Z,7.99
2022-12-15T01:37:46.564Z,8.05
2022-12-15T01:40:37.132Z,8.14
2022-12-15T01:43:03.889Z,8.16
2022-12-15T01:45:30.341Z,8.23
2022-12-15T01:48:07.512Z,8.25
2022-12-15T01:50:37.332Z,8.30
2022-12-15T01:53:03.986Z,8.30
2022-12-15T01:55:32.325Z,8.36
2022-12-15T01:58:03.576Z,8.40
2022-12-15T02:00:31.199Z,8.45
2022-12-15T02:03:00.526Z,8.46
2022-12-15T02:05:29.246Z,8.51
2022-12-15T02:07:56.106Z,8.50
2022-12-15T02:10:28.836Z,8.48
2022-12-15T02:13:29.077Z,8.47
2022-12-15T02:16:30.148Z,8.44
2022-12-15T02:19:15.034Z,8.38
2022-12-15T02:22:07.611Z,8.38
2022-12-15T02:25:00.148Z,8.41
2022-12-15T02:27:44.619Z,8.39
2022-12-15T02:31:12.034Z,8.36
2022-12-15T02:33:52.661Z,8.38
2022-12-15T02:36:26.190Z,8.37
2022-12-15T02:38:52.781Z,8.39
2022-12-15T02:41:35.603Z,8.33
2022-12-15T02:44:26.550Z,8.18
2022-12-15T02:47:17.914Z,8.14
2022-12-15T02:50:11.569Z,7.99
2022-12-15T02:52:59.323Z,8.00
2022-12-15T02:55:25.815Z,7.94
2022-12-15T02:58:01.190Z,8.04
2022-12-15T03:00:29.803Z,8.03
2022-12-15T03:02:56.929Z,8.11
2022-12-15T03:05:25.365Z,8.20
2022-12-15T03:07:54.349Z,8.28
2022-12-15T03:10:24.628Z,8.25
2022-12-15T03:12:51.968Z,8.27
2022-12-15T03:15:18.562Z,8.25
2022-12-15T03:17:45.165Z,8.19
2022-12-15T03:20:12.071Z,8.07
2022-12-15T03:22:39.858Z,8.08
2022-12-15T03:25:06.749Z,8.09
2022-12-15T03:27:33.430Z,8.14
2022-12-15T03:30:00.098Z,8.12
2022-12-15T03:32:26.661Z,8.07
2022-12-15T03:34:53.212Z,8.09
2022-12-15T03:37:19.728Z,8.10
2022-12-15T03:39:46.292Z,8.14
2022-12-15T03:42:12.806Z,8.17
2022-12-15T03:44:39.357Z,8.21
2022-12-15T03:47:06.006Z,8.18
2022-12-15T03:49:32.564Z,8.25
2022-12-15T03:51:59.076Z,8.30
2022-12-15T03:54:25.613Z,8.31
2022-12-15T03:56:52.158Z,8.32
2022-12-15T03:59:19.031Z,8.34
2022-12-15T04:01:48.191Z,8.38
2022-12-15T04:04:15.322Z,8.43
2022-12-15T04:06:41.833Z,8.51
2022-12-15T04:09:08.516Z,8.42
2022-12-15T04:11:35.108Z,8.44
2022-12-15T04:14:02.229Z,8.40
2022-12-15T04:16:29.656Z,8.40
2022-12-15T04:19:14.839Z,8.42
2022-12-15T04:21:41.358Z,8.42
2022-12-15T04:24:26.457Z,8.42
2022-12-15T04:27:11.368Z,8.44
2022-12-15T04:29:56.270Z,8.48
2022-12-15T04:32:42.651Z,8.52
2022-12-15T04:35:29.386Z,8.56
2022-12-15T04:38:14.717Z,8.59
2022-12-15T04:40:59.911Z,8.64
2022-12-15T04:43:45.307Z,8.67
2022-12-15T04:46:30.244Z,8.73
2022-12-15T04:49:15.518Z,8.73
2022-12-15T04:52:00.664Z,8.77
2022-12-15T04:54:45.842Z,8.76
2022-12-15T04:57:30.497Z,8.78
2022-12-15T05:00:15.280Z,8.80
2022-12-15T05:03:00.132Z,8.90
2022-12-15T05:05:45.083Z,8.87
2022-12-15T05:08:30.116Z,8.92
2022-12-15T05:11:18.262Z,9.00
2022-12-15T05:14:03.727Z,9.04
2022-12-15T05:16:49.035Z,9.11
2022-12-15T05:19:34.099Z,9.06
2022-12-15T05:22:18.921Z,9.06
2022-12-15T05:25:03.651Z,9.03
2022-12-15T05:27:48.505Z,8.98
2022-12-15T05:30:33.769Z,9.01
2022-12-15T05:33:04.457Z,9.07
2022-12-15T05:35:30.959Z,9.11
2022-12-15T05:37:57.498Z,9.15
2022-12-15T05:40:24.014Z,9.18
2022-12-15T05:42:50.517Z,9.23
2022-12-15T05:45:17.386Z,9.24
2022-12-15T05:47:43.940Z,9.27
2022-12-15T05:50:10.578Z,9.23
2022-12-15T05:52:37.091Z,9.20
2022-12-15T05:55:03.763Z,9.18
2022-12-15T05:57:30.266Z,9.07
2022-12-15T05:59:56.817Z,9.03
2022-12-15T06:02:23.380Z,9.01
2022-12-15T06:04:49.987Z,9.04
2022-12-15T06:07:16.649Z,9.04
2022-12-15T06:09:43.164Z,9.06
2022-12-15T06:12:09.710Z,9.10
2022-12-15T06:14:36.341Z,9.08
2022-12-15T06:17:03.023Z,9.13
2022-12-15T06:19:29.661Z,9.08
2022-12-15T06:21:56.237Z,9.10
2022-12-15T06:24:22.810Z,9.07
2022-12-15T06:26:49.644Z,9.11
2022-12-15T06:29:16.505Z,9.12
2022-12-15T06:31:43.115Z,9.11
2022-12-15T06:34:14.622Z,9.07
2022-12-15T06:36:42.391Z,9.10
2022-12-15T06:39:12.356Z,9.08
2022-12-15T06:41:39.687Z,9.11
2022-12-15T06:44:06.249Z,9.12
2022-12-15T06:46:34.985Z,9.16
2022-12-15T06:49:01.902Z,9.18
2022-12-15T06:51:29.179Z,9.15
2022-12-15T06:53:56.435Z,9.18
2022-12-15T06:56:33.968Z,9.20
2022-12-15T06:59:03.284Z,9.20
2022-12-15T07:01:31.018Z,9.19
2022-12-15T07:04:01.718Z,9.25
2022-12-15T07:06:34.204Z,9.25
2022-12-15T07:09:00.776Z,9.10
2022-12-15T07:11:27.336Z,9.01
2022-12-15T07:13:54.644Z,9.01
2022-12-15T07:16:23.025Z,9.08
2022-12-15T07:18:49.884Z,9.05
2022-12-15T07:21:16.666Z,9.00
2022-12-15T07:23:54.598Z,8.96
2022-12-15T07:26:22.194Z,8.99
2022-12-15T07:28:48.769Z,9.05
2022-12-15T07:31:15.774Z,9.07
2022-12-15T07:33:42.990Z,9.12
2022-12-15T07:36:11.092Z,9.15
2022-12-15T07:38:38.102Z,9.19
2022-12-15T07:41:06.884Z,9.18
2022-12-15T07:43:34.508Z,9.20
2022-12-15T07:46:02.059Z,9.24
2022-12-15T07:48:29.287Z,9.31
2022-12-15T07:51:07.318Z,9.32
2022-12-15T07:53:36.844Z,9.43
2022-12-15T07:56:07.983Z,9.47
2022-12-15T07:58:36.375Z,9.38
2022-12-15T08:01:07.235Z,9.45
2022-12-15T08:03:35.045Z,9.47
2022-12-15T08:06:10.264Z,9.47
2022-12-15T08:08:37.131Z,9.46
2022-12-15T08:11:05.803Z,9.52
2022-12-15T08:16:21.091Z,9.60
2022-12-15T08:18:48.693Z,9.57
2022-12-15T08:21:15.396Z,9.61
2022-12-15T08:23:41.921Z,9.63
2022-12-15T08:26:17.993Z,9.63
2022-12-15T08:28:46.003Z,9.61
2022-12-15T08:31:16.612Z,9.67
2022-12-15T08:33:43.684Z,9.71
2022-12-15T08:36:13.212Z,9.67
2022-12-15T08:38:40.694Z,9.62
2022-12-15T08:41:10.055Z,9.68
2022-12-15T08:43:41.127Z,9.73
2022-12-15T08:46:13.083Z,9.76
2022-12-15T08:48:39.826Z,9.84
2022-12-15T08:51:06.631Z,9.93
2022-12-15T08:53:33.145Z,10.03
2022-12-15T08:56:08.885Z,10.02
2022-12-15T08:58:35.447Z,10.01
2022-12-15T09:01:12.952Z,10.10
2022-12-15T09:03:41.346Z,9.97
2022-12-15T09:06:13.211Z,9.91
2022-12-15T09:08:40.007Z,9.79
2022-12-15T09:11:06.733Z,9.82
2022-12-15T09:13:33.972Z,9.87
2022-12-15T09:16:13.340Z,9.99
2022-12-15T09:18:42.597Z,10.08
2022-12-15T09:21:14.096Z,10.11
2022-12-15T09:23:41.081Z,10.10
2022-12-15T09:26:14.418Z,10.24
2022-12-15T09:28:42.841Z,10.25
2022-12-15T09:31:15.572Z,10.28
2022-12-15T09:33:43.904Z,10.29
2022-12-15T09:36:13.245Z,10.21
2022-12-15T09:38:41.410Z,10.26
2022-12-15T09:41:33.186Z,10.20
2022-12-15T09:44:14.677Z,10.17
2022-12-15T09:47:16.328Z,10.19
2022-12-15T09:49:48.287Z,10.20
2022-12-15T09:52:19.607Z,10.31
2022-12-15T09:54:46.602Z,10.38
2022-12-15T09:57:37.663Z,10.37
2022-12-15T10:00:25.675Z,10.52
2022-12-15T10:03:20.528Z,10.52
2022-12-15T10:06:27.066Z,10.53
2022-12-15T10:08:58.367Z,10.47
2022-12-15T10:11:50.444Z,10.49
2022-12-15T10:14:27.120Z,10.71
2022-12-15T10:16:58.578Z,10.97
2022-12-15T10:19:43.576Z,11.37
2022-12-15T10:22:24.199Z,11.54
2022-12-15T10:27:56.244Z,11.81
2022-12-15T10:30:23.278Z,12.15
2022-12-15T10:32:50.757Z,12.41
2022-12-15T10:35:22.291Z,12.67
2022-12-15T10:37:50.204Z,12.72
2022-12-15T10:40:49.963Z,12.85
2022-12-15T10:43:36.597Z,12.97
2022-12-15T10:46:23.748Z,13.19
2022-12-15T10:48:51.747Z,13.51
2022-12-15T10:51:32.387Z,13.52
2022-12-15T10:54:01.961Z,13.58
2022-12-15T10:56:33.597Z,13.58
2022-12-15T10:59:30.868Z,13.55
2022-12-15T11:02:23.103Z,13.52
2022-12-15T11:05:17.948Z,13.52
2022-12-15T11:07:47.543Z,13.58
2022-12-15T11:10:24.145Z,13.67
2022-12-15T11:13:10.757Z,13.93
2022-12-15T11:15:43.616Z,14.09
2022-12-15T11:18:11.321Z,14.12
2022-12-15T11:20:42.208Z,14.05
2022-12-15T11:23:46.775Z,14.09
2022-12-15T11:26:46.912Z,14.28
2022-12-15T11:29:42.844Z,14.36
2022-12-15T11:32:12.976Z,14.14
2022-12-15T11:34:44.469Z,14.35
2022-12-15T11:37:19.895Z,14.51
2022-12-15T11:39:54.497Z,14.53
2022-12-15T11:42:48.882Z,14.66
2022-12-15T11:45:30.043Z,14.70
2022-12-15T11:48:01.225Z,14.78
2022-12-15T11:50:54.233Z,14.80
2022-12-15T11:53:45.304Z,14.84
2022-12-15T11:56:43.009Z,14.78
2022-12-15T11:59:35.650Z,14.88
2022-12-15T12:02:20.897Z,15.04
2022-12-15T12:05:25.289Z,15.22
2022-12-15T12:08:41.336Z,15.39
2022-12-15T12:11:15.330Z,15.28
2022-12-15T12:14:06.683Z,15.33
2022-12-15T12:17:01.296Z,15.23
2022-12-15T12:19:37.324Z,15.36
2022-12-15T12:22:14.025Z,15.52
2022-12-15T12:25:04.523Z,15.68
2022-12-15T12:27:50.510Z,15.73
2022-12-15T12:30:21.292Z,15.70
2022-12-15T12:33:03.927Z,15.72
2022-12-15T12:35:55.306Z,15.65
2022-12-15T12:38:50.512Z,15.62
2022-12-15T12:41:36.788Z,15.52
2022-12-15T12:44:21.401Z,15.68
2022-12-15T12:46:51.870Z,15.70
2022-12-15T12:49:30.729Z,15.81
2022-12-15T12:52:00.902Z,15.87
2022-12-15T12:54:52.752Z,16.05
2022-12-15T12:57:46.090Z,16.17
2022-12-15T13:00:17.955Z,16.31
2022-12-15T13:02:55.242Z,16.45
2022-12-15T13:05:23.768Z,16.30
2022-12-15T13:08:05.074Z,16.05
2022-12-15T13:10:34.501Z,15.99
2022-12-15T13:13:19.090Z,15.84
2022-12-15T13:15:51.085Z,15.67
2022-12-15T13:18:24.258Z,15.49
2022-12-15T13:20:55.343Z,15.54
2022-12-15T13:23:21.860Z,15.54
2022-12-15T13:25:57.236Z,15.48
2022-12-15T13:28:36.338Z,15.35
2022-12-15T13:31:21.452Z,15.32
2022-12-15T13:33:51.097Z,15.28
2022-12-15T13:36:42.232Z,15.19
2022-12-15T13:39:12.390Z,15.21
2022-12-15T13:42:07.390Z,15.15
2022-12-15T13:44:46.728Z,15.00
2022-12-15T13:47:16.857Z,15.03
2022-12-15T13:50:02.355Z,15.12
2022-12-15T13:53:16.567Z,15.11
2022-12-15T13:55:32.295Z,15.03
2022-12-15T13:58:02.307Z,15.04
2022-12-15T14:00:29.306Z,14.90
2022-12-15T14:03:12.186Z,14.64
2022-12-15T14:05:42.949Z,14.51
2022-12-15T14:08:14.351Z,14.46
2022-12-15T14:10:51.221Z,14.45
2022-12-15T14:13:25.419Z,14.20
2022-12-15T14:16:07.325Z,14.15
2022-12-15T14:18:35.924Z,14.11
2022-12-15T14:21:18.213Z,14.07
2022-12-15T14:24:11.364Z,14.07
2022-12-15T14:26:32.393Z,13.98
2022-12-15T14:29:02.480Z,13.81
2022-12-15T14:31:30.216Z,13.75
2022-12-15T14:34:07.160Z,13.57
2022-12-15T14:36:34.626Z,13.52
2022-12-15T14:39:01.067Z,13.38
2022-12-15T14:41:29.857Z,13.18
2022-12-15T14:46:48.436Z,12.99
2022-12-15T14:49:28.505Z,12.85
2022-12-15T14:52:03.547Z,12.84
2022-12-15T14:54:37.570Z,12.83
2022-12-15T14:57:14.864Z,12.85
2022-12-15T14:59:45.081Z,12.81
2022-12-15T15:02:16.770Z,12.77
2022-12-15T15:03:06.024Z,13.02
2022-12-15T15:04:43.551Z,12.62
2022-12-15T15:07:19.269Z,12.66
2022-12-15T15:09:47.099Z,12.58
2022-12-15T15:12:19.310Z,12.55
2022-12-15T15:15:00.381Z,12.44
2022-12-15T15:17:36.316Z,12.26
2022-12-15T15:20:08.204Z,12.14
2022-12-15T15:22:43.712Z,12.05
2022-12-15T15:25:40.662Z,12.00
2022-12-15T15:28:37.669Z,11.90
2022-12-15T15:31:41.448Z,11.83
2022-12-15T15:34:08.871Z,11.74
2022-12-15T15:36:38.146Z,11.67
2022-12-15T15:39:13.167Z,11.68
2022-12-15T15:41:39.717Z,11.67
2022-12-15T15:44:13.751Z,11.57
2022-12-15T15:46:47.991Z,11.52
2022-12-15T15:49:19.406Z,11.49
2022-12-15T15:51:46.230Z,11.47
2022-12-15T15:54:19.520Z,11.46
2022-12-15T15:56:46.162Z,11.31
2022-12-15T15:59:16.460Z,11.21
2022-12-15T16:01:45.154Z,11.22
2022-12-15T16:04:12.364Z,11.13
2022-12-15T16:06:45.131Z,11.12
2022-12-15T16:09:15.362Z,11.10
2022-12-15T16:11:42.130Z,11.03
2022-12-15T16:14:16.873Z,10.94
2022-12-15T16:16:44.314Z,10.80
2022-12-15T16:19:12.352Z,10.68
2022-12-15T16:21:40.946Z,10.57
2022-12-15T16:24:17.611Z,10.51
2022-12-15T16:26:48.560Z,10.51
2022-12-15T16:29:16.828Z,10.53
2022-12-15T16:31:46.758Z,10.60
2022-12-15T16:34:16.666Z,10.56
2022-12-15T16:36:44.768Z,10.56
2022-12-15T16:39:30.890Z,10.54
2022-12-15T16:41:57.847Z,10.43
2022-12-15T16:44:25.933Z,10.45
2022-12-15T16:46:52.723Z,10.48
2022-12-15T16:49:19.282Z,10.43
2022-12-15T16:51:48.292Z,10.37
2022-12-15T16:54:25.865Z,10.34
2022-12-15T16:56:54.171Z,10.37
2022-12-15T16:59:38.638Z,10.39
2022-12-15T17:02:20.373Z,10.27
2022-12-15T17:04:46.988Z,10.23
2022-12-15T17:07:19.984Z,10.14
2022-12-15T17:09:48.916Z,10.14
2022-12-15T17:12:17.921Z,10.15
2022-12-15T17:14:45.056Z,10.13
2022-12-15T17:17:16.656Z,10.07
2022-12-15T17:19:57.943Z,10.06
2022-12-15T17:22:30.477Z,10.09
2022-12-15T17:24:57.113Z,10.08
2022-12-15T17:27:29.446Z,10.01
2022-12-15T17:29:58.958Z,9.97
2022-12-15T17:32:25.639Z,9.98
2022-12-15T17:34:52.304Z,9.95
2022-12-15T17:37:18.929Z,9.94
2022-12-15T17:39:50.946Z,9.88
2022-12-15T17:42:20.195Z,9.79
2022-12-15T17:44:48.581Z,9.70
2022-12-15T17:47:16.616Z,9.68
2022-12-15T17:49:43.697Z,9.59
2022-12-15T17:52:30.529Z,9.50
2022-12-15T17:54:57.456Z,9.35
2022-12-15T17:57:24.213Z,9.35
2022-12-15T17:59:50.773Z,9.34
2022-12-15T18:02:17.479Z,9.43
2022-12-15T18:04:44.732Z,9.49
2022-12-15T18:07:21.370Z,9.44
2022-12-15T18:09:49.107Z,9.31
2022-12-15T18:12:29.039Z,9.34
2022-12-15T18:14:56.219Z,9.30
2022-12-15T18:17:23.313Z,9.36
2022-12-15T18:19:49.907Z,9.40
2022-12-15T18:22:22.769Z,9.39
2022-12-15T18:24:51.826Z,9.35
2022-12-15T18:27:29.009Z,9.39
2022-12-15T18:29:56.584Z,9.40
2022-12-15T18:32:25.952Z,9.40
2022-12-15T18:34:53.553Z,9.31
2022-12-15T18:37:23.039Z,9.24
2022-12-15T18:39:50.710Z,9.10
2022-12-15T18:42:19.849Z,8.86
2022-12-15T18:44:52.084Z,8.73
2022-12-15T18:47:21.649Z,8.66
2022-12-15T18:49:48.322Z,8.55
2022-12-15T18:52:16.103Z,8.46
2022-12-15T18:54:43.172Z,8.32
2022-12-15T18:57:30.954Z,8.27
2022-12-15T19:00:07.872Z,8.22
2022-12-15T19:02:34.484Z,8.21
2022-12-15T19:05:01.134Z,8.25
2022-12-15T19:07:27.865Z,8.25
2022-12-15T19:09:54.713Z,8.27
2022-12-15T19:12:21.668Z,8.27
2022-12-15T19:14:50.559Z,8.30
2022-12-15T19:17:38.726Z,8.33
2022-12-15T19:20:34.831Z,8.38
2022-12-15T19:23:01.982Z,8.32
2022-12-15T19:25:29.723Z,8.31
2022-12-15T19:28:00.823Z,8.31
2022-12-15T19:30:30.174Z,8.31
2022-12-15T19:32:57.514Z,8.37
2022-12-15T19:35:24.897Z,8.43
2022-12-15T19:37:55.232Z,8.36
2022-12-15T19:40:31.165Z,8.31
2022-12-15T19:42:59.402Z,8.34
2022-12-15T19:45:28.746Z,8.38
2022-12-15T19:47:56.105Z,8.45
2022-12-15T19:50:25.578Z,8.47
2022-12-15T19:53:01.944Z,8.52
2022-12-15T19:55:34.840Z,8.63
2022-12-15T19:58:22.251Z,8.67
2022-12-15T20:00:52.202Z,8.66
2022-12-15T20:03:20.508Z,8.59
2022-12-15T20:05:50.813Z,8.65
2022-12-15T20:08:29.484Z,8.69
2022-12-15T20:10:56.984Z,8.70
2022-12-15T20:13:23.711Z,8.69
2022-12-15T20:15:50.275Z,8.73
2022-12-15T20:18:16.875Z,8.66
2022-12-15T20:20:45.650Z,8.58
2022-12-15T20:23:22.085Z,8.51
2022-12-15T20:25:48.742Z,8.45
2022-12-15T20:28:21.652Z,8.38
2022-12-15T20:30:48.940Z,8.30
2022-12-15T20:33:16.002Z,8.20
2022-12-15T20:35:44.778Z,8.27
2022-12-15T20:38:32.003Z,8.27
2022-12-15T20:41:00.209Z,8.29
2022-12-15T20:43:31.734Z,8.31
2022-12-15T20:46:13.299Z,8.33
2022-12-15T20:48:40.254Z,8.26
2022-12-15T20:51:09.748Z,8.24
2022-12-15T20:53:37.825Z,8.19
2022-12-15T20:56:04.760Z,8.26
2022-12-15T20:58:33.223Z,8.32
2022-12-15T21:01:00.612Z,8.34
2022-12-15T21:03:28.923Z,8.34
2022-12-15T21:05:57.368Z,8.25
2022-12-15T21:08:29.785Z,8.23
2022-12-15T21:11:01.496Z,8.15
2022-12-15T21:13:31.867Z,8.09
2022-12-15T21:15:58.754Z,8.20
2022-12-15T21:19:17.988Z,8.23
2022-12-15T21:21:34.990Z,8.26
2022-12-15T21:24:07.849Z,8.23
2022-12-15T21:26:34.394Z,8.26
2022-12-15T21:29:02.596Z,8.19
2022-12-15T21:31:29.266Z,8.22
2022-12-15T21:33:55.798Z,8.29
2022-12-15T21:36:22.428Z,8.34
2022-12-15T21:38:51.780Z,8.37
2022-12-15T21:41:20.792Z,8.40
2022-12-15T21:43:47.424Z,8.47
2022-12-15T21:46:27.716Z,8.47
2022-12-15T21:49:14.459Z,8.50
2022-12-15T21:51:44.408Z,8.43
2022-12-15T21:54:28.820Z,8.39
2022-12-15T21:56:58.018Z,8.44
2022-12-15T21:59:28.016Z,8.41
2022-12-15T22:01:56.060Z,8.42
2022-12-15T22:04:31.452Z,8.51
2022-12-15T22:06:58.162Z,8.55
2022-12-15T22:09:24.800Z,8.56
2022-12-15T22:11:54.154Z,8.54
2022-12-15T22:14:30.213Z,8.45
2022-12-15T22:16:58.601Z,8.15
2022-12-15T22:19:25.242Z,8.05
2022-12-15T22:24:38.342Z,8.00
2022-12-15T22:27:04.978Z,7.95
2022-12-15T22:29:31.765Z,7.98
2022-12-15T22:31:58.311Z,8.00
2022-12-15T22:34:27.599Z,8.04
2022-12-15T22:36:54.879Z,8.12
2022-12-15T22:39:21.665Z,8.15
2022-12-15T22:41:50.747Z,8.19
2022-12-15T22:44:19.500Z,8.18
2022-12-15T22:46:47.869Z,8.21
2022-12-15T22:49:17.577Z,8.30
2022-12-15T22:51:44.710Z,8.38
2022-12-15T22:54:18.080Z,8.34
2022-12-15T22:56:45.363Z,8.32
2022-12-15T22:59:17.522Z,8.40
2022-12-15T23:01:44.889Z,8.41
2022-12-15T23:04:11.576Z,8.36
2022-12-15T23:06:38.125Z,8.36
2022-12-15T23:09:04.846Z,8.34
2022-12-15T23:11:37.328Z,8.26
2022-12-15T23:14:17.453Z,8.32
2022-12-15T23:16:46.428Z,8.36
2022-12-15T23:19:24.913Z,8.32
2022-12-15T23:21:52.087Z,8.28
2022-12-15T23:24:18.750Z,8.21
2022-12-15T23:26:45.269Z,8.19
2022-12-15T23:29:11.868Z,8.11
2022-12-15T23:31:38.514Z,8.14
2022-12-15T23:34:05.389Z,8.15
2022-12-15T23:36:31.905Z,8.20
2022-12-15T23:38:58.402Z,8.11
2022-12-15T23:41:25.101Z,8.06
2022-12-15T23:43:51.640Z,8.14
2022-12-15T23:46:18.841Z,8.06
2022-12-15T23:48:45.544Z,8.18
2022-12-15T23:51:21.165Z,8.21
2022-12-15T23:53:48.220Z,8.22
2022-12-15T23:56:17.109Z,8.20
2022-12-15T23:58:45.008Z,8.19
